sensor_id;sensor_type;location;lat;lon;timestamp;temperature;humidity
41838;DHT22;27511;52.042;5.178;2023-05-17T00:00:10;13.10;99.90
41838;DHT22;27511;52.042;5.178;2023-05-17T00:02:35;13.10;99.90
41838;DHT22;27511;52.042;5.178;2023-05-17T00:05:02;13.30;99.90
41838;DHT22;27511;52.042;5.178;2023-05-17T00:07:28;13.20;99.90
41838;DHT22;27511;52.042;5.178;2023-05-17T00:09:53;13.40;99.90
41838;DHT22;27511;52.042;5.178;2023-05-17T00:12:19;13.50;99.90
41838;DHT22;27511;52.042;5.178;2023-05-17T00:14:44;13.40;99.90
41838;DHT22;27511;52.042;5.178;2023-05-17T00:17:10;13.40;99.90
41838;DHT22;27511;52.042;5.178;2023-05-17T00:19:35;13.40;99.90
41838;DHT22;27511;52.042;5.178;2023-05-17T00:22:00;13.40;99.90
41838;DHT22;27511;52.042;5.178;2023-05-17T00:24:26;13.40;99.90
41838;DHT22;27511;52.042;5.178;2023-05-17T00:26:51;13.40;99.90
41838;DHT22;27511;52.042;5.178;2023-05-17T00:29:17;13.30;99.90
41838;DHT22;27511;52.042;5.178;2023-05-17T00:31:42;13.20;99.90
41838;DHT22;27511;52.042;5.178;2023-05-17T00:34:08;13.10;99.90
41838;DHT22;27511;52.042;5.178;2023-05-17T00:36:33;13.20;99.90
41838;DHT22;27511;52.042;5.178;2023-05-17T00:38:59;13.10;99.90
41838;DHT22;27511;52.042;5.178;2023-05-17T00:41:24;13.10;99.90
41838;DHT22;27511;52.042;5.178;2023-05-17T00:43:50;13.10;99.90
41838;DHT22;27511;52.042;5.178;2023-05-17T00:46:16;13.10;99.90
41838;DHT22;27511;52.042;5.178;2023-05-17T00:48:41;13.10;99.90
41838;DHT22;27511;52.042;5.178;2023-05-17T00:51:07;13.10;99.90
41838;DHT22;27511;52.042;5.178;2023-05-17T00:53:32;13.00;99.90
41838;DHT22;27511;52.042;5.178;2023-05-17T00:56:00;13.00;99.90
41838;DHT22;27511;52.042;5.178;2023-05-17T00:58:26;13.00;99.90
41838;DHT22;27511;52.042;5.178;2023-05-17T01:00:51;13.10;99.90
41838;DHT22;27511;52.042;5.178;2023-05-17T01:03:17;13.10;99.90
41838;DHT22;27511;52.042;5.178;2023-05-17T01:05:42;13.10;99.90
41838;DHT22;27511;52.042;5.178;2023-05-17T01:08:08;13.10;99.90
41838;DHT22;27511;52.042;5.178;2023-05-17T01:10:40;13.30;99.90
41838;DHT22;27511;52.042;5.178;2023-05-17T01:13:14;13.20;99.90
41838;DHT22;27511;52.042;5.178;2023-05-17T01:15:42;13.20;99.90
41838;DHT22;27511;52.042;5.178;2023-05-17T01:21:29;13.20;99.90
41838;DHT22;27511;52.042;5.178;2023-05-17T01:24:14;13.10;99.90
41838;DHT22;27511;52.042;5.178;2023-05-17T01:26:42;13.20;99.90
41838;DHT22;27511;52.042;5.178;2023-05-17T01:29:09;13.20;99.90
41838;DHT22;27511;52.042;5.178;2023-05-17T01:31:36;13.10;99.90
41838;DHT22;27511;52.042;5.178;2023-05-17T01:34:05;13.20;99.90
41838;DHT22;27511;52.042;5.178;2023-05-17T01:36:31;13.20;99.90
41838;DHT22;27511;52.042;5.178;2023-05-17T01:38:56;13.30;99.90
41838;DHT22;27511;52.042;5.178;2023-05-17T01:41:38;13.30;99.90
41838;DHT22;27511;52.042;5.178;2023-05-17T01:44:07;13.40;99.90
41838;DHT22;27511;52.042;5.178;2023-05-17T01:46:40;13.40;99.90
41838;DHT22;27511;52.042;5.178;2023-05-17T01:49:17;13.30;99.90
41838;DHT22;27511;52.042;5.178;2023-05-17T01:54:19;13.20;99.90
41838;DHT22;27511;52.042;5.178;2023-05-17T01:56:46;13.10;99.90
41838;DHT22;27511;52.042;5.178;2023-05-17T01:59:14;13.10;99.90
41838;DHT22;27511;52.042;5.178;2023-05-17T02:01:43;13.00;99.90
41838;DHT22;27511;52.042;5.178;2023-05-17T02:04:10;13.30;99.90
41838;DHT22;27511;52.042;5.178;2023-05-17T02:06:36;13.30;99.90
41838;DHT22;27511;52.042;5.178;2023-05-17T02:09:01;13.20;99.90
41838;DHT22;27511;52.042;5.178;2023-05-17T02:11:27;13.20;99.90
41838;DHT22;27511;52.042;5.178;2023-05-17T02:13:56;13.00;99.90
41838;DHT22;27511;52.042;5.178;2023-05-17T02:16:23;13.10;99.90
41838;DHT22;27511;52.042;5.178;2023-05-17T02:18:48;13.10;99.90
41838;DHT22;27511;52.042;5.178;2023-05-17T02:21:14;13.10;99.90
41838;DHT22;27511;52.042;5.178;2023-05-17T02:23:39;13.10;99.90
41838;DHT22;27511;52.042;5.178;2023-05-17T02:26:05;13.20;99.90
41838;DHT22;27511;52.042;5.178;2023-05-17T02:28:30;13.20;99.90
41838;DHT22;27511;52.042;5.178;2023-05-17T02:30:56;13.20;99.90
41838;DHT22;27511;52.042;5.178;2023-05-17T02:33:21;13.20;99.90
41838;DHT22;27511;52.042;5.178;2023-05-17T02:35:50;13.10;99.90
41838;DHT22;27511;52.042;5.178;2023-05-17T02:38:16;13.20;99.90
41838;DHT22;27511;52.042;5.178;2023-05-17T02:40:41;13.10;99.90
41838;DHT22;27511;52.042;5.178;2023-05-17T02:43:07;13.00;99.90
41838;DHT22;27511;52.042;5.178;2023-05-17T02:45:32;12.90;99.90
41838;DHT22;27511;52.042;5.178;2023-05-17T02:47:57;13.10;99.90
41838;DHT22;27511;52.042;5.178;2023-05-17T02:50:23;13.00;99.90
41838;DHT22;27511;52.042;5.178;2023-05-17T02:52:48;12.90;99.90
41838;DHT22;27511;52.042;5.178;2023-05-17T02:55:14;13.00;99.90
41838;DHT22;27511;52.042;5.178;2023-05-17T02:57:39;12.90;99.90
41838;DHT22;27511;52.042;5.178;2023-05-17T03:00:05;12.90;99.90
41838;DHT22;27511;52.042;5.178;2023-05-17T03:02:31;12.80;99.90
41838;DHT22;27511;52.042;5.178;2023-05-17T03:04:56;12.90;99.90
41838;DHT22;27511;52.042;5.178;2023-05-17T03:07:22;12.70;99.90
41838;DHT22;27511;52.042;5.178;2023-05-17T03:09:47;12.80;99.90
41838;DHT22;27511;52.042;5.178;2023-05-17T03:12:13;12.70;99.90
41838;DHT22;27511;52.042;5.178;2023-05-17T03:14:38;12.70;99.90
41838;DHT22;27511;52.042;5.178;2023-05-17T03:17:04;12.70;99.90
41838;DHT22;27511;52.042;5.178;2023-05-17T03:19:29;12.80;99.90
41838;DHT22;27511;52.042;5.178;2023-05-17T03:21:55;12.80;99.90
41838;DHT22;27511;52.042;5.178;2023-05-17T03:24:20;12.70;99.90
41838;DHT22;27511;52.042;5.178;2023-05-17T03:26:46;12.70;99.90
41838;DHT22;27511;52.042;5.178;2023-05-17T03:29:11;12.70;99.90
41838;DHT22;27511;52.042;5.178;2023-05-17T03:31:37;12.70;99.90
41838;DHT22;27511;52.042;5.178;2023-05-17T03:34:02;12.80;99.90
41838;DHT22;27511;52.042;5.178;2023-05-17T03:36:28;12.70;99.90
41838;DHT22;27511;52.042;5.178;2023-05-17T03:38:53;12.80;99.90
41838;DHT22;27511;52.042;5.178;2023-05-17T03:41:18;12.80;99.90
41838;DHT22;27511;52.042;5.178;2023-05-17T03:43:44;12.80;99.90
41838;DHT22;27511;52.042;5.178;2023-05-17T03:46:10;12.80;99.90
41838;DHT22;27511;52.042;5.178;2023-05-17T03:48:35;12.70;99.90
41838;DHT22;27511;52.042;5.178;2023-05-17T03:51:01;12.90;99.90
41838;DHT22;27511;52.042;5.178;2023-05-17T03:53:26;12.90;99.90
41838;DHT22;27511;52.042;5.178;2023-05-17T03:55:52;13.00;99.90
41838;DHT22;27511;52.042;5.178;2023-05-17T03:58:17;13.10;99.90
41838;DHT22;27511;52.042;5.178;2023-05-17T04:00:43;13.20;99.90
41838;DHT22;27511;52.042;5.178;2023-05-17T04:03:08;13.30;99.90
41838;DHT22;27511;52.042;5.178;2023-05-17T04:05:34;13.30;99.90
41838;DHT22;27511;52.042;5.178;2023-05-17T04:07:59;13.20;99.90
41838;DHT22;27511;52.042;5.178;2023-05-17T04:10:25;13.20;99.90
41838;DHT22;27511;52.042;5.178;2023-05-17T04:12:51;13.40;99.90
41838;DHT22;27511;52.042;5.178;2023-05-17T04:15:16;13.20;99.90
41838;DHT22;27511;52.042;5.178;2023-05-17T04:17:41;13.10;99.90
41838;DHT22;27511;52.042;5.178;2023-05-17T04:20:07;13.10;99.90
41838;DHT22;27511;52.042;5.178;2023-05-17T04:22:33;13.10;99.90
41838;DHT22;27511;52.042;5.178;2023-05-17T04:24:58;13.20;99.90
41838;DHT22;27511;52.042;5.178;2023-05-17T04:27:24;13.30;99.90
41838;DHT22;27511;52.042;5.178;2023-05-17T04:29:49;13.30;99.90
41838;DHT22;27511;52.042;5.178;2023-05-17T04:32:16;13.20;99.90
41838;DHT22;27511;52.042;5.178;2023-05-17T04:34:41;13.30;99.90
41838;DHT22;27511;52.042;5.178;2023-05-17T04:37:07;13.30;99.90
41838;DHT22;27511;52.042;5.178;2023-05-17T04:39:32;13.30;99.90
41838;DHT22;27511;52.042;5.178;2023-05-17T04:41:58;13.30;99.90
41838;DHT22;27511;52.042;5.178;2023-05-17T04:44:24;13.30;99.90
41838;DHT22;27511;52.042;5.178;2023-05-17T04:46:49;13.30;99.90
41838;DHT22;27511;52.042;5.178;2023-05-17T04:49:15;13.30;99.90
41838;DHT22;27511;52.042;5.178;2023-05-17T04:51:40;13.30;99.90
41838;DHT22;27511;52.042;5.178;2023-05-17T04:54:06;13.10;99.90
41838;DHT22;27511;52.042;5.178;2023-05-17T04:56:35;13.20;99.90
41838;DHT22;27511;52.042;5.178;2023-05-17T04:59:01;13.20;99.90
41838;DHT22;27511;52.042;5.178;2023-05-17T05:01:27;13.20;99.90
41838;DHT22;27511;52.042;5.178;2023-05-17T05:03:55;13.30;99.90
41838;DHT22;27511;52.042;5.178;2023-05-17T05:06:21;13.30;99.90
41838;DHT22;27511;52.042;5.178;2023-05-17T05:08:46;13.30;99.90
41838;DHT22;27511;52.042;5.178;2023-05-17T05:11:12;13.30;99.90
41838;DHT22;27511;52.042;5.178;2023-05-17T05:13:37;13.30;99.90
41838;DHT22;27511;52.042;5.178;2023-05-17T05:16:03;13.40;99.90
41838;DHT22;27511;52.042;5.178;2023-05-17T05:18:29;13.40;99.90
41838;DHT22;27511;52.042;5.178;2023-05-17T05:20:55;13.50;99.90
41838;DHT22;27511;52.042;5.178;2023-05-17T05:23:20;13.50;99.90
41838;DHT22;27511;52.042;5.178;2023-05-17T05:25:47;13.50;99.90
41838;DHT22;27511;52.042;5.178;2023-05-17T05:28:13;13.50;99.90
41838;DHT22;27511;52.042;5.178;2023-05-17T05:30:38;13.60;99.90
41838;DHT22;27511;52.042;5.178;2023-05-17T05:33:04;13.60;99.90
41838;DHT22;27511;52.042;5.178;2023-05-17T05:35:29;13.60;99.90
41838;DHT22;27511;52.042;5.178;2023-05-17T05:37:55;13.50;99.90
41838;DHT22;27511;52.042;5.178;2023-05-17T05:40:21;13.50;99.90
41838;DHT22;27511;52.042;5.178;2023-05-17T05:42:47;13.50;99.90
41838;DHT22;27511;52.042;5.178;2023-05-17T05:45:12;13.60;99.90
41838;DHT22;27511;52.042;5.178;2023-05-17T05:47:38;13.60;99.90
41838;DHT22;27511;52.042;5.178;2023-05-17T05:50:04;13.60;99.90
41838;DHT22;27511;52.042;5.178;2023-05-17T05:52:29;13.60;99.90
41838;DHT22;27511;52.042;5.178;2023-05-17T05:54:55;13.70;99.90
41838;DHT22;27511;52.042;5.178;2023-05-17T05:57:20;13.80;99.90
41838;DHT22;27511;52.042;5.178;2023-05-17T05:59:46;13.80;99.90
41838;DHT22;27511;52.042;5.178;2023-05-17T06:02:11;13.70;99.90
41838;DHT22;27511;52.042;5.178;2023-05-17T06:04:37;13.70;99.90
41838;DHT22;27511;52.042;5.178;2023-05-17T06:07:02;13.70;99.90
41838;DHT22;27511;52.042;5.178;2023-05-17T06:09:28;13.90;99.90
41838;DHT22;27511;52.042;5.178;2023-05-17T06:11:54;13.80;99.90
41838;DHT22;27511;52.042;5.178;2023-05-17T06:14:19;13.80;99.90
41838;DHT22;27511;52.042;5.178;2023-05-17T06:16:44;13.90;99.90
41838;DHT22;27511;52.042;5.178;2023-05-17T06:19:12;13.80;99.90
41838;DHT22;27511;52.042;5.178;2023-05-17T06:21:38;13.90;99.90
41838;DHT22;27511;52.042;5.178;2023-05-17T06:24:04;13.90;99.90
41838;DHT22;27511;52.042;5.178;2023-05-17T06:26:29;13.80;99.90
41838;DHT22;27511;52.042;5.178;2023-05-17T06:28:55;13.80;99.90
41838;DHT22;27511;52.042;5.178;2023-05-17T06:31:21;13.90;99.90
41838;DHT22;27511;52.042;5.178;2023-05-17T06:33:46;13.90;99.90
41838;DHT22;27511;52.042;5.178;2023-05-17T06:36:13;13.90;99.90
41838;DHT22;27511;52.042;5.178;2023-05-17T06:38:38;14.00;99.90
41838;DHT22;27511;52.042;5.178;2023-05-17T06:41:04;14.00;99.90
41838;DHT22;27511;52.042;5.178;2023-05-17T06:43:29;13.90;99.90
41838;DHT22;27511;52.042;5.178;2023-05-17T06:45:55;14.00;99.90
41838;DHT22;27511;52.042;5.178;2023-05-17T06:48:20;14.00;99.90
41838;DHT22;27511;52.042;5.178;2023-05-17T06:50:46;14.10;99.90
41838;DHT22;27511;52.042;5.178;2023-05-17T06:53:11;14.00;99.90
41838;DHT22;27511;52.042;5.178;2023-05-17T06:55:37;14.00;99.90
41838;DHT22;27511;52.042;5.178;2023-05-17T06:58:02;13.60;99.90
41838;DHT22;27511;52.042;5.178;2023-05-17T07:00:28;13.30;99.90
41838;DHT22;27511;52.042;5.178;2023-05-17T07:02:53;13.40;99.90
41838;DHT22;27511;52.042;5.178;2023-05-17T07:05:19;13.60;99.90
41838;DHT22;27511;52.042;5.178;2023-05-17T07:07:45;13.80;99.90
41838;DHT22;27511;52.042;5.178;2023-05-17T07:10:10;13.50;99.90
41838;DHT22;27511;52.042;5.178;2023-05-17T07:12:36;13.60;99.90
41838;DHT22;27511;52.042;5.178;2023-05-17T07:15:01;13.70;99.90
41838;DHT22;27511;52.042;5.178;2023-05-17T07:17:27;13.70;99.90
41838;DHT22;27511;52.042;5.178;2023-05-17T07:19:53;13.70;99.90
41838;DHT22;27511;52.042;5.178;2023-05-17T07:22:18;13.80;99.90
41838;DHT22;27511;52.042;5.178;2023-05-17T07:24:44;13.90;99.90
41838;DHT22;27511;52.042;5.178;2023-05-17T07:27:10;13.90;99.90
41838;DHT22;27511;52.042;5.178;2023-05-17T07:29:36;13.80;99.90
41838;DHT22;27511;52.042;5.178;2023-05-17T07:32:02;14.00;99.90
41838;DHT22;27511;52.042;5.178;2023-05-17T07:34:28;14.20;99.90
41838;DHT22;27511;52.042;5.178;2023-05-17T07:36:54;14.30;99.90
41838;DHT22;27511;52.042;5.178;2023-05-17T07:39:19;14.00;99.90
41838;DHT22;27511;52.042;5.178;2023-05-17T07:41:45;13.80;99.90
41838;DHT22;27511;52.042;5.178;2023-05-17T07:44:10;14.00;99.90
41838;DHT22;27511;52.042;5.178;2023-05-17T07:46:36;14.00;99.90
41838;DHT22;27511;52.042;5.178;2023-05-17T07:49:01;14.10;99.90
41838;DHT22;27511;52.042;5.178;2023-05-17T07:51:27;14.20;99.90
41838;DHT22;27511;52.042;5.178;2023-05-17T07:53:52;13.80;99.90
41838;DHT22;27511;52.042;5.178;2023-05-17T07:56:17;13.80;99.90
41838;DHT22;27511;52.042;5.178;2023-05-17T07:58:43;13.40;99.90
41838;DHT22;27511;52.042;5.178;2023-05-17T08:01:08;13.30;99.90
41838;DHT22;27511;52.042;5.178;2023-05-17T08:03:34;13.60;99.90
41838;DHT22;27511;52.042;5.178;2023-05-17T08:06:00;13.90;99.90
41838;DHT22;27511;52.042;5.178;2023-05-17T08:08:25;13.80;99.90
41838;DHT22;27511;52.042;5.178;2023-05-17T08:10:51;13.90;99.90
41838;DHT22;27511;52.042;5.178;2023-05-17T08:13:16;14.00;99.90
41838;DHT22;27511;52.042;5.178;2023-05-17T08:15:42;14.00;99.90
41838;DHT22;27511;52.042;5.178;2023-05-17T08:18:07;14.00;99.90
41838;DHT22;27511;52.042;5.178;2023-05-17T08:20:33;13.90;99.90
41838;DHT22;27511;52.042;5.178;2023-05-17T08:22:58;14.00;99.90
41838;DHT22;27511;52.042;5.178;2023-05-17T08:25:24;14.00;99.90
41838;DHT22;27511;52.042;5.178;2023-05-17T08:27:49;14.20;99.90
41838;DHT22;27511;52.042;5.178;2023-05-17T08:30:15;14.00;99.90
41838;DHT22;27511;52.042;5.178;2023-05-17T08:32:41;14.10;99.90
41838;DHT22;27511;52.042;5.178;2023-05-17T08:35:06;14.20;99.90
41838;DHT22;27511;52.042;5.178;2023-05-17T08:37:32;14.30;99.90
41838;DHT22;27511;52.042;5.178;2023-05-17T08:39:57;14.20;99.90
41838;DHT22;27511;52.042;5.178;2023-05-17T08:42:23;14.00;99.90
41838;DHT22;27511;52.042;5.178;2023-05-17T08:44:51;14.00;99.90
41838;DHT22;27511;52.042;5.178;2023-05-17T08:47:18;14.00;99.90
41838;DHT22;27511;52.042;5.178;2023-05-17T08:49:54;14.10;99.90
41838;DHT22;27511;52.042;5.178;2023-05-17T08:52:20;13.90;99.90
41838;DHT22;27511;52.042;5.178;2023-05-17T08:54:46;14.00;99.90
41838;DHT22;27511;52.042;5.178;2023-05-17T08:57:11;14.00;99.90
41838;DHT22;27511;52.042;5.178;2023-05-17T08:59:38;14.00;99.90
41838;DHT22;27511;52.042;5.178;2023-05-17T09:02:04;13.90;99.90
41838;DHT22;27511;52.042;5.178;2023-05-17T09:04:30;14.00;99.90
41838;DHT22;27511;52.042;5.178;2023-05-17T09:06:56;14.00;99.90
41838;DHT22;27511;52.042;5.178;2023-05-17T09:09:21;14.10;99.90
41838;DHT22;27511;52.042;5.178;2023-05-17T09:11:47;14.20;99.90
41838;DHT22;27511;52.042;5.178;2023-05-17T09:14:13;14.20;99.90
41838;DHT22;27511;52.042;5.178;2023-05-17T09:16:39;14.30;99.90
41838;DHT22;27511;52.042;5.178;2023-05-17T09:19:05;14.00;99.90
41838;DHT22;27511;52.042;5.178;2023-05-17T09:21:31;13.70;99.90
41838;DHT22;27511;52.042;5.178;2023-05-17T09:23:57;14.00;99.90
41838;DHT22;27511;52.042;5.178;2023-05-17T09:26:23;14.10;99.90
41838;DHT22;27511;52.042;5.178;2023-05-17T09:28:49;14.40;99.90
41838;DHT22;27511;52.042;5.178;2023-05-17T09:31:17;14.60;99.90
41838;DHT22;27511;52.042;5.178;2023-05-17T09:33:46;14.60;99.90
41838;DHT22;27511;52.042;5.178;2023-05-17T09:36:19;14.50;99.90
41838;DHT22;27511;52.042;5.178;2023-05-17T09:38:58;14.40;99.90
41838;DHT22;27511;52.042;5.178;2023-05-17T09:41:29;14.30;99.90
41838;DHT22;27511;52.042;5.178;2023-05-17T09:44:01;14.40;99.90
41838;DHT22;27511;52.042;5.178;2023-05-17T09:46:27;14.40;99.90
41838;DHT22;27511;52.042;5.178;2023-05-17T09:48:53;14.60;99.90
41838;DHT22;27511;52.042;5.178;2023-05-17T09:51:36;14.40;99.90
41838;DHT22;27511;52.042;5.178;2023-05-17T09:54:01;14.20;99.90
41838;DHT22;27511;52.042;5.178;2023-05-17T09:56:30;14.40;99.90
41838;DHT22;27511;52.042;5.178;2023-05-17T09:58:56;14.70;99.90
41838;DHT22;27511;52.042;5.178;2023-05-17T10:01:23;14.80;99.90
41838;DHT22;27511;52.042;5.178;2023-05-17T10:03:50;14.90;99.90
41838;DHT22;27511;52.042;5.178;2023-05-17T10:06:16;14.90;99.90
41838;DHT22;27511;52.042;5.178;2023-05-17T10:08:45;14.90;99.90
41838;DHT22;27511;52.042;5.178;2023-05-17T10:11:14;14.90;99.90
41838;DHT22;27511;52.042;5.178;2023-05-17T10:13:46;15.10;99.90
41838;DHT22;27511;52.042;5.178;2023-05-17T10:16:13;14.70;99.90
41838;DHT22;27511;52.042;5.178;2023-05-17T10:18:39;14.70;99.90
41838;DHT22;27511;52.042;5.178;2023-05-17T10:21:05;14.80;99.90
41838;DHT22;27511;52.042;5.178;2023-05-17T10:23:31;14.90;99.90
41838;DHT22;27511;52.042;5.178;2023-05-17T10:25:58;15.10;99.90
41838;DHT22;27511;52.042;5.178;2023-05-17T10:28:23;15.20;99.90
41838;DHT22;27511;52.042;5.178;2023-05-17T10:30:51;15.00;99.90
41838;DHT22;27511;52.042;5.178;2023-05-17T10:33:19;14.80;99.90
41838;DHT22;27511;52.042;5.178;2023-05-17T10:35:44;15.00;99.90
41838;DHT22;27511;52.042;5.178;2023-05-17T10:38:10;15.10;99.90
41838;DHT22;27511;52.042;5.178;2023-05-17T10:40:36;15.20;99.90
41838;DHT22;27511;52.042;5.178;2023-05-17T10:43:03;15.30;99.90
41838;DHT22;27511;52.042;5.178;2023-05-17T10:45:29;15.40;99.90
41838;DHT22;27511;52.042;5.178;2023-05-17T10:47:55;15.60;99.90
41838;DHT22;27511;52.042;5.178;2023-05-17T10:50:21;15.80;99.90
41838;DHT22;27511;52.042;5.178;2023-05-17T10:52:47;15.60;99.90
41838;DHT22;27511;52.042;5.178;2023-05-17T10:55:16;15.50;99.90
41838;DHT22;27511;52.042;5.178;2023-05-17T10:57:42;15.40;99.90
41838;DHT22;27511;52.042;5.178;2023-05-17T11:00:18;15.40;99.90
41838;DHT22;27511;52.042;5.178;2023-05-17T11:02:44;15.50;99.90
41838;DHT22;27511;52.042;5.178;2023-05-17T11:05:21;15.70;99.90
41838;DHT22;27511;52.042;5.178;2023-05-17T11:07:47;15.80;99.90
41838;DHT22;27511;52.042;5.178;2023-05-17T11:10:12;15.80;99.90
41838;DHT22;27511;52.042;5.178;2023-05-17T11:17:36;15.90;99.90
41838;DHT22;27511;52.042;5.178;2023-05-17T11:22:33;15.60;99.90
41838;DHT22;27511;52.042;5.178;2023-05-17T11:24:59;15.70;99.90
41838;DHT22;27511;52.042;5.178;2023-05-17T11:27:25;15.90;99.90
41838;DHT22;27511;52.042;5.178;2023-05-17T11:29:53;15.90;99.90
41838;DHT22;27511;52.042;5.178;2023-05-17T11:32:30;16.00;99.90
41838;DHT22;27511;52.042;5.178;2023-05-17T11:34:58;15.90;99.90
41838;DHT22;27511;52.042;5.178;2023-05-17T11:37:24;15.80;99.90
41838;DHT22;27511;52.042;5.178;2023-05-17T11:40:04;15.60;99.90
41838;DHT22;27511;52.042;5.178;2023-05-17T11:42:30;15.70;99.90
41838;DHT22;27511;52.042;5.178;2023-05-17T11:44:56;15.60;99.90
41838;DHT22;27511;52.042;5.178;2023-05-17T11:47:24;15.80;99.90
41838;DHT22;27511;52.042;5.178;2023-05-17T11:49:50;15.60;99.90
41838;DHT22;27511;52.042;5.178;2023-05-17T11:52:17;15.70;99.90
41838;DHT22;27511;52.042;5.178;2023-05-17T11:54:43;15.70;99.90
41838;DHT22;27511;52.042;5.178;2023-05-17T11:57:10;15.60;99.90
41838;DHT22;27511;52.042;5.178;2023-05-17T11:59:37;15.80;99.90
41838;DHT22;27511;52.042;5.178;2023-05-17T12:02:03;15.80;99.90
41838;DHT22;27511;52.042;5.178;2023-05-17T12:04:33;16.10;99.90
41838;DHT22;27511;52.042;5.178;2023-05-17T12:06:59;16.10;99.90
41838;DHT22;27511;52.042;5.178;2023-05-17T12:09:25;16.10;99.90
41838;DHT22;27511;52.042;5.178;2023-05-17T12:11:51;16.10;99.90
41838;DHT22;27511;52.042;5.178;2023-05-17T12:14:17;15.90;99.90
41838;DHT22;27511;52.042;5.178;2023-05-17T12:16:45;16.20;99.90
41838;DHT22;27511;52.042;5.178;2023-05-17T12:19:18;16.50;99.90
41838;DHT22;27511;52.042;5.178;2023-05-17T12:21:44;16.40;99.90
41838;DHT22;27511;52.042;5.178;2023-05-17T12:24:10;16.50;99.90
41838;DHT22;27511;52.042;5.178;2023-05-17T12:26:41;16.50;99.90
41838;DHT22;27511;52.042;5.178;2023-05-17T12:29:06;16.50;99.90
41838;DHT22;27511;52.042;5.178;2023-05-17T12:31:32;16.50;99.90
41838;DHT22;27511;52.042;5.178;2023-05-17T12:33:58;16.50;99.90
41838;DHT22;27511;52.042;5.178;2023-05-17T12:36:26;16.40;99.90
41838;DHT22;27511;52.042;5.178;2023-05-17T12:38:52;16.60;99.90
41838;DHT22;27511;52.042;5.178;2023-05-17T12:41:19;16.60;99.90
41838;DHT22;27511;52.042;5.178;2023-05-17T12:43:46;16.50;99.90
41838;DHT22;27511;52.042;5.178;2023-05-17T12:46:15;16.60;99.90
41838;DHT22;27511;52.042;5.178;2023-05-17T12:48:45;16.80;99.90
41838;DHT22;27511;52.042;5.178;2023-05-17T12:51:12;17.00;99.90
41838;DHT22;27511;52.042;5.178;2023-05-17T12:53:38;17.20;99.90
41838;DHT22;27511;52.042;5.178;2023-05-17T12:56:04;17.30;99.90
41838;DHT22;27511;52.042;5.178;2023-05-17T12:58:30;17.40;99.90
41838;DHT22;27511;52.042;5.178;2023-05-17T13:00:59;17.50;99.90
41838;DHT22;27511;52.042;5.178;2023-05-17T13:03:25;17.20;99.90
41838;DHT22;27511;52.042;5.178;2023-05-17T13:06:04;17.20;99.90
41838;DHT22;27511;52.042;5.178;2023-05-17T13:08:30;17.30;99.90
41838;DHT22;27511;52.042;5.178;2023-05-17T13:11:09;17.50;99.90
41838;DHT22;27511;52.042;5.178;2023-05-17T13:13:35;17.50;99.90
41838;DHT22;27511;52.042;5.178;2023-05-17T13:16:00;17.40;99.90
41838;DHT22;27511;52.042;5.178;2023-05-17T13:18:26;17.70;99.90
41838;DHT22;27511;52.042;5.178;2023-05-17T13:20:53;18.00;99.90
41838;DHT22;27511;52.042;5.178;2023-05-17T13:23:18;18.10;99.90
41838;DHT22;27511;52.042;5.178;2023-05-17T13:25:44;18.00;99.90
41838;DHT22;27511;52.042;5.178;2023-05-17T13:28:09;18.10;99.90
41838;DHT22;27511;52.042;5.178;2023-05-17T13:30:35;18.20;99.90
41838;DHT22;27511;52.042;5.178;2023-05-17T13:33:00;18.30;99.90
41838;DHT22;27511;52.042;5.178;2023-05-17T13:35:26;18.40;99.90
41838;DHT22;27511;52.042;5.178;2023-05-17T13:37:51;18.20;99.90
41838;DHT22;27511;52.042;5.178;2023-05-17T13:40:17;18.40;99.90
41838;DHT22;27511;52.042;5.178;2023-05-17T13:42:43;18.40;99.90
41838;DHT22;27511;52.042;5.178;2023-05-17T13:45:09;18.30;99.90
41838;DHT22;27511;52.042;5.178;2023-05-17T13:47:35;18.10;99.90
41838;DHT22;27511;52.042;5.178;2023-05-17T13:50:01;17.80;99.90
41838;DHT22;27511;52.042;5.178;2023-05-17T13:52:28;17.40;99.90
41838;DHT22;27511;52.042;5.178;2023-05-17T13:54:55;17.70;99.90
41838;DHT22;27511;52.042;5.178;2023-05-17T13:57:21;17.50;99.90
41838;DHT22;27511;52.042;5.178;2023-05-17T13:59:46;17.70;99.90
41838;DHT22;27511;52.042;5.178;2023-05-17T14:02:12;17.70;99.90
41838;DHT22;27511;52.042;5.178;2023-05-17T14:04:37;17.80;99.90
41838;DHT22;27511;52.042;5.178;2023-05-17T14:07:03;17.90;99.90
41838;DHT22;27511;52.042;5.178;2023-05-17T14:09:29;18.00;99.90
41838;DHT22;27511;52.042;5.178;2023-05-17T14:11:57;18.20;99.90
41838;DHT22;27511;52.042;5.178;2023-05-17T14:14:22;18.00;99.90
41838;DHT22;27511;52.042;5.178;2023-05-17T14:16:50;17.90;99.90
41838;DHT22;27511;52.042;5.178;2023-05-17T14:19:16;18.20;99.90
41838;DHT22;27511;52.042;5.178;2023-05-17T14:21:41;18.20;99.90
41838;DHT22;27511;52.042;5.178;2023-05-17T14:24:06;17.90;99.90
41838;DHT22;27511;52.042;5.178;2023-05-17T14:26:32;18.20;99.90
41838;DHT22;27511;52.042;5.178;2023-05-17T14:28:58;18.30;99.90
41838;DHT22;27511;52.042;5.178;2023-05-17T14:31:24;18.50;99.90
41838;DHT22;27511;52.042;5.178;2023-05-17T14:33:50;18.60;99.90
41838;DHT22;27511;52.042;5.178;2023-05-17T14:36:15;18.60;99.90
41838;DHT22;27511;52.042;5.178;2023-05-17T14:38:41;18.40;99.90
41838;DHT22;27511;52.042;5.178;2023-05-17T14:41:06;18.50;99.90
41838;DHT22;27511;52.042;5.178;2023-05-17T14:43:32;18.50;99.90
41838;DHT22;27511;52.042;5.178;2023-05-17T14:45:57;18.50;99.90
41838;DHT22;27511;52.042;5.178;2023-05-17T14:48:23;18.50;99.90
41838;DHT22;27511;52.042;5.178;2023-05-17T14:50:48;18.40;99.90
41838;DHT22;27511;52.042;5.178;2023-05-17T14:53:14;18.50;99.90
41838;DHT22;27511;52.042;5.178;2023-05-17T14:55:39;18.80;99.90
41838;DHT22;27511;52.042;5.178;2023-05-17T14:58:05;18.90;99.90
41838;DHT22;27511;52.042;5.178;2023-05-17T15:00:31;18.70;99.90
41838;DHT22;27511;52.042;5.178;2023-05-17T15:02:57;18.80;99.90
41838;DHT22;27511;52.042;5.178;2023-05-17T15:05:23;18.90;99.90
41838;DHT22;27511;52.042;5.178;2023-05-17T15:07:49;19.10;99.90
41838;DHT22;27511;52.042;5.178;2023-05-17T15:10:14;19.30;99.90
41838;DHT22;27511;52.042;5.178;2023-05-17T15:12:40;19.60;99.90
41838;DHT22;27511;52.042;5.178;2023-05-17T15:15:05;19.80;99.90
41838;DHT22;27511;52.042;5.178;2023-05-17T15:17:31;19.80;99.90
41838;DHT22;27511;52.042;5.178;2023-05-17T15:19:57;20.30;99.90
41838;DHT22;27511;52.042;5.178;2023-05-17T15:22:23;20.90;99.90
41838;DHT22;27511;52.042;5.178;2023-05-17T15:24:48;22.20;99.90
41838;DHT22;27511;52.042;5.178;2023-05-17T15:27:14;23.20;99.90
41838;DHT22;27511;52.042;5.178;2023-05-17T15:29:41;24.40;99.90
41838;DHT22;27511;52.042;5.178;2023-05-17T15:32:07;24.70;99.90
41838;DHT22;27511;52.042;5.178;2023-05-17T15:34:33;25.20;99.90
41838;DHT22;27511;52.042;5.178;2023-05-17T15:36:58;26.30;99.90